sensor_id;sensor_type;location;lat;lon;timestamp;pressure;altitude;pressure_sealevel;temperature;humidity
51067;BME280;37112;45.892;-123.962;2022-09-09T00:01:11;101869.90;;;16.89;66.96
51067;BME280;37112;45.892;-123.962;2022-09-09T00:03:34;101869.08;;;16.88;67.08
51067;BME280;37112;45.892;-123.962;2022-09-09T00:05:54;101868.45;;;16.87;67.41
51067;BME280;37112;45.892;-123.962;2022-09-09T00:08:17;101869.77;;;16.86;67.56
51067;BME280;37112;45.892;-123.962;2022-09-09T00:10:32;101863.06;;;16.77;67.54
51067;BME280;37112;45.892;-123.962;2022-09-09T00:12:53;101860.23;;;16.75;68.09
51067;BME280;37112;45.892;-123.962;2022-09-09T00:15:14;101855.48;;;16.74;68.16
51067;BME280;37112;45.892;-123.962;2022-09-09T00:17:38;101859.56;;;16.64;68.55
51067;BME280;37112;45.892;-123.962;2022-09-09T00:19:55;101855.89;;;16.65;68.93
51067;BME280;37112;45.892;-123.962;2022-09-09T00:22:17;101854.04;;;16.57;69.11
51067;BME280;37112;45.892;-123.962;2022-09-09T00:24:35;101850.83;;;16.47;69.13
51067;BME280;37112;45.892;-123.962;2022-09-09T00:26:54;101850.34;;;16.46;69.18
51067;BME280;37112;45.892;-123.962;2022-09-09T00:29:18;101845.92;;;16.50;69.26
51067;BME280;37112;45.892;-123.962;2022-09-09T00:31:35;101844.30;;;16.60;69.70
51067;BME280;37112;45.892;-123.962;2022-09-09T00:33:50;101836.06;;;16.72;69.61
51067;BME280;37112;45.892;-123.962;2022-09-09T00:36:07;101837.04;;;16.87;69.23
51067;BME280;37112;45.892;-123.962;2022-09-09T00:38:27;101836.88;;;16.99;68.60
51067;BME280;37112;45.892;-123.962;2022-09-09T00:40:48;101838.13;;;17.10;68.27
51067;BME280;37112;45.892;-123.962;2022-09-09T00:43:29;101833.36;;;17.21;67.69
51067;BME280;37112;45.892;-123.962;2022-09-09T00:45:57;101831.01;;;17.33;66.70
51067;BME280;37112;45.892;-123.962;2022-09-09T00:48:16;101828.60;;;17.43;66.52
51067;BME280;37112;45.892;-123.962;2022-09-09T00:50:47;101824.71;;;17.58;66.97
51067;BME280;37112;45.892;-123.962;2022-09-09T00:53:18;101820.86;;;17.73;66.62
51067;BME280;37112;45.892;-123.962;2022-09-09T00:55:38;101817.30;;;17.81;66.15
51067;BME280;37112;45.892;-123.962;2022-09-09T00:57:54;101816.84;;;17.89;65.88
51067;BME280;37112;45.892;-123.962;2022-09-09T01:00:24;101813.31;;;17.95;66.01
51067;BME280;37112;45.892;-123.962;2022-09-09T01:02:42;101811.84;;;18.00;65.73
51067;BME280;37112;45.892;-123.962;2022-09-09T01:05:02;101803.33;;;18.02;65.45
51067;BME280;37112;45.892;-123.962;2022-09-09T01:07:19;101802.42;;;18.05;65.32
51067;BME280;37112;45.892;-123.962;2022-09-09T01:09:37;101802.13;;;18.08;65.26
51067;BME280;37112;45.892;-123.962;2022-09-09T01:11:58;101801.73;;;18.11;65.01
51067;BME280;37112;45.892;-123.962;2022-09-09T01:14:22;101801.20;;;18.13;64.75
51067;BME280;37112;45.892;-123.962;2022-09-09T01:16:37;101793.77;;;18.12;64.27
51067;BME280;37112;45.892;-123.962;2022-09-09T01:18:54;101793.53;;;18.10;64.33
51067;BME280;37112;45.892;-123.962;2022-09-09T01:21:17;101792.58;;;18.06;64.29
51067;BME280;37112;45.892;-123.962;2022-09-09T01:23:44;101796.11;;;18.01;63.85
51067;BME280;37112;45.892;-123.962;2022-09-09T01:26:30;101798.11;;;17.92;63.60
51067;BME280;37112;45.892;-123.962;2022-09-09T01:28:52;101792.58;;;17.82;63.68
51067;BME280;37112;45.892;-123.962;2022-09-09T01:31:16;101791.91;;;17.75;63.91
51067;BME280;37112;45.892;-123.962;2022-09-09T01:33:30;101787.38;;;17.69;64.02
51067;BME280;37112;45.892;-123.962;2022-09-09T01:35:48;101786.28;;;17.65;64.22
51067;BME280;37112;45.892;-123.962;2022-09-09T01:38:09;101787.77;;;17.62;64.51
51067;BME280;37112;45.892;-123.962;2022-09-09T01:40:23;101787.25;;;17.59;64.32
51067;BME280;37112;45.892;-123.962;2022-09-09T01:42:38;101779.50;;;17.53;64.15
51067;BME280;37112;45.892;-123.962;2022-09-09T01:44:51;101777.65;;;17.49;64.33
51067;BME280;37112;45.892;-123.962;2022-09-09T01:47:06;101774.48;;;17.43;64.28
51067;BME280;37112;45.892;-123.962;2022-09-09T01:49:39;101775.73;;;17.37;64.25
51067;BME280;37112;45.892;-123.962;2022-09-09T01:52:01;101776.12;;;17.32;64.40
51067;BME280;37112;45.892;-123.962;2022-09-09T01:54:19;101767.92;;;17.27;64.40
51067;BME280;37112;45.892;-123.962;2022-09-09T01:56:40;101767.98;;;17.21;64.30
51067;BME280;37112;45.892;-123.962;2022-09-09T01:59:02;101771.31;;;17.16;64.32
51067;BME280;37112;45.892;-123.962;2022-09-09T02:01:22;101772.20;;;17.11;64.50
51067;BME280;37112;45.892;-123.962;2022-09-09T02:03:39;101769.24;;;17.06;64.45
51067;BME280;37112;45.892;-123.962;2022-09-09T02:06:08;101764.27;;;17.00;64.48
51067;BME280;37112;45.892;-123.962;2022-09-09T02:08:33;101762.47;;;16.95;64.62
51067;BME280;37112;45.892;-123.962;2022-09-09T02:11:08;101757.64;;;16.91;64.76
51067;BME280;37112;45.892;-123.962;2022-09-09T02:13:51;101753.53;;;16.86;64.82
51067;BME280;37112;45.892;-123.962;2022-09-09T02:16:10;101753.60;;;16.81;64.86
51067;BME280;37112;45.892;-123.962;2022-09-09T02:18:45;101753.81;;;16.76;64.97
51067;BME280;37112;45.892;-123.962;2022-09-09T02:21:26;101750.56;;;16.71;65.11
51067;BME280;37112;45.892;-123.962;2022-09-09T02:23:42;101751.89;;;16.65;65.13
51067;BME280;37112;45.892;-123.962;2022-09-09T02:25:58;101751.85;;;16.59;65.11
51067;BME280;37112;45.892;-123.962;2022-09-09T02:28:14;101749.86;;;16.52;65.20
51067;BME280;37112;45.892;-123.962;2022-09-09T02:30:31;101748.52;;;16.46;65.35
51067;BME280;37112;45.892;-123.962;2022-09-09T02:32:46;101742.16;;;16.40;65.41
51067;BME280;37112;45.892;-123.962;2022-09-09T02:35:05;101742.66;;;16.33;65.59
51067;BME280;37112;45.892;-123.962;2022-09-09T02:37:22;101746.88;;;16.28;65.73
51067;BME280;37112;45.892;-123.962;2022-09-09T02:39:39;101746.44;;;16.21;65.92
51067;BME280;37112;45.892;-123.962;2022-09-09T02:41:54;101750.00;;;16.17;66.00
51067;BME280;37112;45.892;-123.962;2022-09-09T02:44:14;101748.10;;;16.11;66.17
51067;BME280;37112;45.892;-123.962;2022-09-09T02:46:40;101752.02;;;16.07;66.27
51067;BME280;37112;45.892;-123.962;2022-09-09T02:49:03;101749.41;;;16.01;66.33
51067;BME280;37112;45.892;-123.962;2022-09-09T02:51:27;101748.75;;;15.98;66.49
51067;BME280;37112;45.892;-123.962;2022-09-09T02:53:48;101744.52;;;15.94;66.62
51067;BME280;37112;45.892;-123.962;2022-09-09T02:56:07;101746.27;;;15.90;66.74
51067;BME280;37112;45.892;-123.962;2022-09-09T02:58:23;101738.55;;;15.87;66.84
51067;BME280;37112;45.892;-123.962;2022-09-09T03:00:41;101735.42;;;15.86;66.93
51067;BME280;37112;45.892;-123.962;2022-09-09T03:02:55;101738.19;;;15.85;67.03
51067;BME280;37112;45.892;-123.962;2022-09-09T03:05:10;101741.11;;;15.84;67.08
51067;BME280;37112;45.892;-123.962;2022-09-09T03:07:23;101742.58;;;15.82;67.06
51067;BME280;37112;45.892;-123.962;2022-09-09T03:09:38;101741.14;;;15.79;67.14
51067;BME280;37112;45.892;-123.962;2022-09-09T03:11:52;101741.68;;;15.77;67.20
51067;BME280;37112;45.892;-123.962;2022-09-09T03:14:06;101744.04;;;15.74;67.19
51067;BME280;37112;45.892;-123.962;2022-09-09T03:16:22;101742.33;;;15.70;67.37
51067;BME280;37112;45.892;-123.962;2022-09-09T03:18:35;101744.99;;;15.68;67.46
51067;BME280;37112;45.892;-123.962;2022-09-09T03:20:48;101748.74;;;15.66;67.53
51067;BME280;37112;45.892;-123.962;2022-09-09T03:23:02;101747.27;;;15.64;67.65
51067;BME280;37112;45.892;-123.962;2022-09-09T03:25:15;101747.02;;;15.63;67.57
51067;BME280;37112;45.892;-123.962;2022-09-09T03:27:29;101744.27;;;15.58;67.59
51067;BME280;37112;45.892;-123.962;2022-09-09T03:29:43;101746.21;;;15.53;67.71
51067;BME280;37112;45.892;-123.962;2022-09-09T03:32:00;101742.42;;;15.49;67.67
51067;BME280;37112;45.892;-123.962;2022-09-09T03:34:14;101747.13;;;15.46;67.73
51067;BME280;37112;45.892;-123.962;2022-09-09T03:36:27;101743.64;;;15.42;67.76
51067;BME280;37112;45.892;-123.962;2022-09-09T03:38:40;101743.65;;;15.39;67.87
51067;BME280;37112;45.892;-123.962;2022-09-09T03:40:56;101745.39;;;15.38;67.93
51067;BME280;37112;45.892;-123.962;2022-09-09T03:43:10;101739.45;;;15.36;67.94
51067;BME280;37112;45.892;-123.962;2022-09-09T03:45:23;101741.07;;;15.30;68.01
51067;BME280;37112;45.892;-123.962;2022-09-09T03:47:37;101740.34;;;15.26;67.96
51067;BME280;37112;45.892;-123.962;2022-09-09T03:49:50;101735.83;;;15.23;68.16
51067;BME280;37112;45.892;-123.962;2022-09-09T03:52:04;101735.47;;;15.19;67.98
51067;BME280;37112;45.892;-123.962;2022-09-09T03:54:17;101734.04;;;15.13;68.00
51067;BME280;37112;45.892;-123.962;2022-09-09T03:56:31;101731.23;;;15.10;68.14
51067;BME280;37112;45.892;-123.962;2022-09-09T03:58:44;101728.66;;;15.06;68.18
51067;BME280;37112;45.892;-123.962;2022-09-09T04:00:58;101727.31;;;15.02;68.19
51067;BME280;37112;45.892;-123.962;2022-09-09T04:03:12;101726.44;;;14.97;68.21
51067;BME280;37112;45.892;-123.962;2022-09-09T04:05:26;101729.19;;;14.91;68.35
51067;BME280;37112;45.892;-123.962;2022-09-09T04:07:39;101722.71;;;14.86;68.52
51067;BME280;37112;45.892;-123.962;2022-09-09T04:09:53;101721.70;;;14.83;68.64
51067;BME280;37112;45.892;-123.962;2022-09-09T04:12:08;101721.79;;;14.82;68.86
51067;BME280;37112;45.892;-123.962;2022-09-09T04:14:23;101723.02;;;14.80;68.89
51067;BME280;37112;45.892;-123.962;2022-09-09T04:16:39;101714.91;;;14.77;69.03
51067;BME280;37112;45.892;-123.962;2022-09-09T04:18:55;101713.63;;;14.75;69.06
51067;BME280;37112;45.892;-123.962;2022-09-09T04:21:09;101714.52;;;14.73;69.11
51067;BME280;37112;45.892;-123.962;2022-09-09T04:23:23;101713.04;;;14.68;69.12
51067;BME280;37112;45.892;-123.962;2022-09-09T04:25:38;101714.84;;;14.63;69.08
51067;BME280;37112;45.892;-123.962;2022-09-09T04:27:58;101714.79;;;14.59;69.16
51067;BME280;37112;45.892;-123.962;2022-09-09T04:30:14;101713.12;;;14.49;69.03
51067;BME280;37112;45.892;-123.962;2022-09-09T04:32:27;101709.02;;;14.43;69.15
51067;BME280;37112;45.892;-123.962;2022-09-09T04:34:41;101711.02;;;14.40;69.24
51067;BME280;37112;45.892;-123.962;2022-09-09T04:36:55;101709.58;;;14.38;69.28
51067;BME280;37112;45.892;-123.962;2022-09-09T04:39:09;101712.48;;;14.34;69.28
51067;BME280;37112;45.892;-123.962;2022-09-09T04:41:23;101703.05;;;14.31;69.37
51067;BME280;37112;45.892;-123.962;2022-09-09T04:43:36;101700.33;;;14.29;69.46
51067;BME280;37112;45.892;-123.962;2022-09-09T04:45:51;101703.67;;;14.27;69.36
51067;BME280;37112;45.892;-123.962;2022-09-09T04:48:06;101695.42;;;14.25;69.45
51067;BME280;37112;45.892;-123.962;2022-09-09T04:50:21;101695.33;;;14.24;69.46
51067;BME280;37112;45.892;-123.962;2022-09-09T04:52:40;101692.91;;;14.20;69.44
51067;BME280;37112;45.892;-123.962;2022-09-09T04:54:53;101688.98;;;14.15;69.32
51067;BME280;37112;45.892;-123.962;2022-09-09T04:57:07;101688.05;;;14.10;69.38
51067;BME280;37112;45.892;-123.962;2022-09-09T04:59:27;101687.61;;;14.06;69.45
51067;BME280;37112;45.892;-123.962;2022-09-09T05:01:41;101680.55;;;14.02;69.57
51067;BME280;37112;45.892;-123.962;2022-09-09T05:03:55;101676.25;;;13.99;69.65
51067;BME280;37112;45.892;-123.962;2022-09-09T05:06:11;101678.59;;;13.97;69.72
51067;BME280;37112;45.892;-123.962;2022-09-09T05:08:25;101671.87;;;13.93;69.74
51067;BME280;37112;45.892;-123.962;2022-09-09T05:10:39;101668.73;;;13.89;69.89
51067;BME280;37112;45.892;-123.962;2022-09-09T05:12:57;101662.16;;;13.86;69.89
51067;BME280;37112;45.892;-123.962;2022-09-09T05:15:12;101662.08;;;13.84;70.00
51067;BME280;37112;45.892;-123.962;2022-09-09T05:17:25;101658.50;;;13.82;70.12
51067;BME280;37112;45.892;-123.962;2022-09-09T05:19:39;101657.54;;;13.80;70.18
51067;BME280;37112;45.892;-123.962;2022-09-09T05:21:54;101656.43;;;13.78;70.31
51067;BME280;37112;45.892;-123.962;2022-09-09T05:24:13;101655.23;;;13.74;70.27
51067;BME280;37112;45.892;-123.962;2022-09-09T05:26:26;101653.12;;;13.72;70.39
51067;BME280;37112;45.892;-123.962;2022-09-09T05:28:40;101646.14;;;13.69;70.43
51067;BME280;37112;45.892;-123.962;2022-09-09T05:31:00;101649.77;;;13.65;70.27
51067;BME280;37112;45.892;-123.962;2022-09-09T05:33:15;101648.35;;;13.57;70.10
51067;BME280;37112;45.892;-123.962;2022-09-09T05:35:28;101645.39;;;13.51;70.20
51067;BME280;37112;45.892;-123.962;2022-09-09T05:37:42;101645.20;;;13.45;70.25
51067;BME280;37112;45.892;-123.962;2022-09-09T05:39:56;101644.52;;;13.42;70.38
51067;BME280;37112;45.892;-123.962;2022-09-09T05:42:12;101635.14;;;13.38;70.42
51067;BME280;37112;45.892;-123.962;2022-09-09T05:44:25;101633.29;;;13.33;70.41
51067;BME280;37112;45.892;-123.962;2022-09-09T05:46:40;101631.82;;;13.28;70.42
51067;BME280;37112;45.892;-123.962;2022-09-09T05:48:54;101628.63;;;13.26;70.56
51067;BME280;37112;45.892;-123.962;2022-09-09T05:51:12;101625.64;;;13.22;70.68
51067;BME280;37112;45.892;-123.962;2022-09-09T05:53:27;101623.87;;;13.19;70.57
51067;BME280;37112;45.892;-123.962;2022-09-09T05:55:42;101624.50;;;13.17;70.72
51067;BME280;37112;45.892;-123.962;2022-09-09T05:57:56;101622.13;;;13.15;70.80
51067;BME280;37112;45.892;-123.962;2022-09-09T06:00:12;101619.80;;;13.13;70.78
51067;BME280;37112;45.892;-123.962;2022-09-09T06:02:26;101620.87;;;13.10;70.84
51067;BME280;37112;45.892;-123.962;2022-09-09T06:04:40;101622.64;;;13.07;70.93
51067;BME280;37112;45.892;-123.962;2022-09-09T06:06:53;101621.45;;;13.06;71.01
51067;BME280;37112;45.892;-123.962;2022-09-09T06:09:07;101621.76;;;13.01;70.88
51067;BME280;37112;45.892;-123.962;2022-09-09T06:11:25;101616.75;;;12.99;71.04
51067;BME280;37112;45.892;-123.962;2022-09-09T06:13:41;101615.91;;;12.95;71.06
51067;BME280;37112;45.892;-123.962;2022-09-09T06:15:55;101611.16;;;12.92;71.16
51067;BME280;37112;45.892;-123.962;2022-09-09T06:18:09;101611.88;;;12.89;71.23
51067;BME280;37112;45.892;-123.962;2022-09-09T06:20:22;101608.84;;;12.86;71.35
51067;BME280;37112;45.892;-123.962;2022-09-09T06:22:35;101606.67;;;12.83;71.47
51067;BME280;37112;45.892;-123.962;2022-09-09T06:24:49;101608.92;;;12.81;71.50
51067;BME280;37112;45.892;-123.962;2022-09-09T06:27:02;101604.88;;;12.78;71.59
51067;BME280;37112;45.892;-123.962;2022-09-09T06:29:16;101603.45;;;12.75;71.51
51067;BME280;37112;45.892;-123.962;2022-09-09T06:31:30;101603.53;;;12.71;71.63
51067;BME280;37112;45.892;-123.962;2022-09-09T06:34:04;101603.71;;;12.66;71.69
51067;BME280;37112;45.892;-123.962;2022-09-09T06:36:21;101598.09;;;12.61;71.73
51067;BME280;37112;45.892;-123.962;2022-09-09T06:38:36;101597.04;;;12.58;71.85
51067;BME280;37112;45.892;-123.962;2022-09-09T06:40:55;101593.52;;;12.54;71.88
51067;BME280;37112;45.892;-123.962;2022-09-09T06:43:09;101591.91;;;12.49;71.98
51067;BME280;37112;45.892;-123.962;2022-09-09T06:45:28;101588.64;;;12.44;71.94
51067;BME280;37112;45.892;-123.962;2022-09-09T06:47:41;101587.98;;;12.40;72.19
51067;BME280;37112;45.892;-123.962;2022-09-09T06:49:56;101579.98;;;12.37;72.40
51067;BME280;37112;45.892;-123.962;2022-09-09T06:52:10;101578.64;;;12.36;72.54
51067;BME280;37112;45.892;-123.962;2022-09-09T06:54:24;101577.52;;;12.34;72.70
51067;BME280;37112;45.892;-123.962;2022-09-09T06:56:38;101575.83;;;12.32;72.72
51067;BME280;37112;45.892;-123.962;2022-09-09T06:59:03;101574.04;;;12.30;72.89
51067;BME280;37112;45.892;-123.962;2022-09-09T07:01:21;101572.34;;;12.28;73.07
51067;BME280;37112;45.892;-123.962;2022-09-09T07:03:36;101565.42;;;12.27;73.22
51067;BME280;37112;45.892;-123.962;2022-09-09T07:05:58;101564.77;;;12.27;73.36
51067;BME280;37112;45.892;-123.962;2022-09-09T07:08:13;101562.52;;;12.25;73.35
51067;BME280;37112;45.892;-123.962;2022-09-09T07:10:28;101562.14;;;12.26;73.46
51067;BME280;37112;45.892;-123.962;2022-09-09T07:12:42;101560.24;;;12.25;73.47
51067;BME280;37112;45.892;-123.962;2022-09-09T07:14:56;101551.31;;;12.23;73.46
51067;BME280;37112;45.892;-123.962;2022-09-09T07:17:09;101550.30;;;12.22;73.58
51067;BME280;37112;45.892;-123.962;2022-09-09T07:19:23;101548.05;;;12.20;73.71
51067;BME280;37112;45.892;-123.962;2022-09-09T07:21:36;101547.45;;;12.19;73.70
51067;BME280;37112;45.892;-123.962;2022-09-09T07:23:51;101550.11;;;12.19;73.84
51067;BME280;37112;45.892;-123.962;2022-09-09T07:26:06;101548.73;;;12.18;74.03
51067;BME280;37112;45.892;-123.962;2022-09-09T07:28:21;101551.58;;;12.18;74.12
51067;BME280;37112;45.892;-123.962;2022-09-09T07:30:34;101549.98;;;12.18;74.24
51067;BME280;37112;45.892;-123.962;2022-09-09T07:32:48;101547.30;;;12.18;74.43
51067;BME280;37112;45.892;-123.962;2022-09-09T07:35:03;101544.65;;;12.18;74.51
51067;BME280;37112;45.892;-123.962;2022-09-09T07:37:17;101543.78;;;12.18;74.68
51067;BME280;37112;45.892;-123.962;2022-09-09T07:39:30;101542.63;;;12.16;74.67
51067;BME280;37112;45.892;-123.962;2022-09-09T07:41:46;101541.38;;;12.16;74.70
51067;BME280;37112;45.892;-123.962;2022-09-09T07:44:03;101536.67;;;12.15;74.78
51067;BME280;37112;45.892;-123.962;2022-09-09T07:46:18;101533.73;;;12.13;74.78
51067;BME280;37112;45.892;-123.962;2022-09-09T07:48:32;101525.62;;;12.12;74.72
51067;BME280;37112;45.892;-123.962;2022-09-09T07:50:46;101519.59;;;12.09;74.77
51067;BME280;37112;45.892;-123.962;2022-09-09T07:53:00;101512.09;;;12.06;74.80
51067;BME280;37112;45.892;-123.962;2022-09-09T07:55:16;101507.10;;;12.03;74.84
51067;BME280;37112;45.892;-123.962;2022-09-09T07:57:30;101505.98;;;12.02;74.91
51067;BME280;37112;45.892;-123.962;2022-09-09T07:59:43;101500.98;;;11.98;75.04
51067;BME280;37112;45.892;-123.962;2022-09-09T08:01:57;101496.08;;;11.97;75.19
51067;BME280;37112;45.892;-123.962;2022-09-09T08:04:12;101491.95;;;11.95;75.18
51067;BME280;37112;45.892;-123.962;2022-09-09T08:06:26;101486.80;;;11.92;75.19
51067;BME280;37112;45.892;-123.962;2022-09-09T08:08:40;101484.44;;;11.89;75.26
51067;BME280;37112;45.892;-123.962;2022-09-09T08:10:54;101481.84;;;11.88;75.26
51067;BME280;37112;45.892;-123.962;2022-09-09T08:13:14;101478.86;;;11.85;75.31
51067;BME280;37112;45.892;-123.962;2022-09-09T08:15:28;101474.53;;;11.83;75.34
51067;BME280;37112;45.892;-123.962;2022-09-09T08:17:43;101470.56;;;11.80;75.37
51067;BME280;37112;45.892;-123.962;2022-09-09T08:19:57;101474.65;;;11.78;75.36
51067;BME280;37112;45.892;-123.962;2022-09-09T08:22:16;101467.13;;;11.75;75.39
51067;BME280;37112;45.892;-123.962;2022-09-09T08:24:31;101462.70;;;11.72;75.51
51067;BME280;37112;45.892;-123.962;2022-09-09T08:26:45;101466.27;;;11.69;75.64
51067;BME280;37112;45.892;-123.962;2022-09-09T08:29:02;101463.86;;;11.68;75.86
51067;BME280;37112;45.892;-123.962;2022-09-09T08:31:17;101459.80;;;11.67;75.89
51067;BME280;37112;45.892;-123.962;2022-09-09T08:33:30;101452.72;;;11.66;75.86
51067;BME280;37112;45.892;-123.962;2022-09-09T08:35:52;101448.67;;;11.65;75.96
51067;BME280;37112;45.892;-123.962;2022-09-09T08:38:06;101446.27;;;11.64;75.97
51067;BME280;37112;45.892;-123.962;2022-09-09T08:40:26;101441.42;;;11.62;76.24
51067;BME280;37112;45.892;-123.962;2022-09-09T08:42:43;101441.69;;;11.63;76.44
51067;BME280;37112;45.892;-123.962;2022-09-09T08:47:37;101438.00;;;11.60;76.44
51067;BME280;37112;45.892;-123.962;2022-09-09T08:50:08;101439.62;;;11.59;76.62
51067;BME280;37112;45.892;-123.962;2022-09-09T08:52:35;101436.31;;;11.58;76.73
51067;BME280;37112;45.892;-123.962;2022-09-09T08:54:51;101433.70;;;11.57;76.72
51067;BME280;37112;45.892;-123.962;2022-09-09T08:57:07;101434.75;;;11.55;76.63
51067;BME280;37112;45.892;-123.962;2022-09-09T08:59:22;101426.70;;;11.53;76.71
51067;BME280;37112;45.892;-123.962;2022-09-09T09:01:47;101424.20;;;11.50;76.91
51067;BME280;37112;45.892;-123.962;2022-09-09T09:04:14;101424.23;;;11.52;77.51
51067;BME280;37112;45.892;-123.962;2022-09-09T09:06:45;101416.13;;;11.63;78.41
51067;BME280;37112;45.892;-123.962;2022-09-09T09:09:08;101413.85;;;11.80;78.69
51067;BME280;37112;45.892;-123.962;2022-09-09T09:11:24;101413.55;;;11.96;78.78
51067;BME280;37112;45.892;-123.962;2022-09-09T09:13:42;101419.27;;;12.10;78.63
51067;BME280;37112;45.892;-123.962;2022-09-09T09:16:02;101409.84;;;12.24;78.37
51067;BME280;37112;45.892;-123.962;2022-09-09T09:18:19;101409.63;;;12.33;77.79
51067;BME280;37112;45.892;-123.962;2022-09-09T09:20:42;101410.90;;;12.41;77.42
51067;BME280;37112;45.892;-123.962;2022-09-09T09:23:02;101408.66;;;12.53;77.37
51067;BME280;37112;45.892;-123.962;2022-09-09T09:25:20;101403.15;;;12.67;77.19
51067;BME280;37112;45.892;-123.962;2022-09-09T09:27:39;101396.80;;;12.82;76.90
51067;BME280;37112;45.892;-123.962;2022-09-09T09:29:54;101400.02;;;12.95;76.30
51067;BME280;37112;45.892;-123.962;2022-09-09T09:32:31;101399.95;;;13.07;75.64
51067;BME280;37112;45.892;-123.962;2022-09-09T09:34:54;101401.23;;;13.12;74.87
51067;BME280;37112;45.892;-123.962;2022-09-09T09:37:15;101397.35;;;13.11;74.17
51067;BME280;37112;45.892;-123.962;2022-09-09T09:39:32;101396.16;;;13.08;73.62
51067;BME280;37112;45.892;-123.962;2022-09-09T09:42:13;101395.98;;;13.02;73.48
51067;BME280;37112;45.892;-123.962;2022-09-09T09:44:33;101390.35;;;12.99;73.35
51067;BME280;37112;45.892;-123.962;2022-09-09T09:46:52;101388.27;;;12.98;73.32
51067;BME280;37112;45.892;-123.962;2022-09-09T09:49:10;101384.52;;;13.01;73.27
51067;BME280;37112;45.892;-123.962;2022-09-09T09:51:25;101388.23;;;13.06;73.16
51067;BME280;37112;45.892;-123.962;2022-09-09T09:53:39;101384.52;;;13.17;73.13
51067;BME280;37112;45.892;-123.962;2022-09-09T09:55:56;101385.14;;;13.31;72.96
51067;BME280;37112;45.892;-123.962;2022-09-09T09:58:17;101381.05;;;13.44;72.50
51067;BME280;37112;45.892;-123.962;2022-09-09T10:00:31;101378.00;;;13.57;71.88
51067;BME280;37112;45.892;-123.962;2022-09-09T10:02:49;101375.56;;;13.67;71.27
51067;BME280;37112;45.892;-123.962;2022-09-09T10:05:12;101365.85;;;13.73;71.00
51067;BME280;37112;45.892;-123.962;2022-09-09T10:07:27;101358.34;;;13.78;70.68
51067;BME280;37112;45.892;-123.962;2022-09-09T10:09:41;101353.79;;;13.82;70.29
51067;BME280;37112;45.892;-123.962;2022-09-09T10:12:01;101347.52;;;13.85;70.12
51067;BME280;37112;45.892;-123.962;2022-09-09T10:14:23;101341.33;;;13.86;69.61
51067;BME280;37112;45.892;-123.962;2022-09-09T10:16:50;101343.52;;;13.86;68.79
51067;BME280;37112;45.892;-123.962;2022-09-09T10:19:09;101344.70;;;13.84;69.06
51067;BME280;37112;45.892;-123.962;2022-09-09T10:21:41;101341.94;;;13.83;68.88
51067;BME280;37112;45.892;-123.962;2022-09-09T10:24:07;101339.23;;;13.76;68.62
51067;BME280;37112;45.892;-123.962;2022-09-09T10:26:34;101345.11;;;13.68;68.58
51067;BME280;37112;45.892;-123.962;2022-09-09T10:29:04;101349.24;;;13.63;68.69
51067;BME280;37112;45.892;-123.962;2022-09-09T10:31:27;101345.72;;;13.57;68.86
51067;BME280;37112;45.892;-123.962;2022-09-09T10:33:54;101348.13;;;13.56;69.13
51067;BME280;37112;45.892;-123.962;2022-09-09T10:36:16;101344.71;;;13.54;69.27
51067;BME280;37112;45.892;-123.962;2022-09-09T10:38:33;101338.45;;;13.59;69.49
51067;BME280;37112;45.892;-123.962;2022-09-09T10:41:13;101329.77;;;13.63;69.39
51067;BME280;37112;45.892;-123.962;2022-09-09T10:43:39;101328.70;;;13.68;69.20
51067;BME280;37112;45.892;-123.962;2022-09-09T10:46:04;101327.01;;;13.72;68.97
51067;BME280;37112;45.892;-123.962;2022-09-09T10:48:34;101328.65;;;13.74;68.74
51067;BME280;37112;45.892;-123.962;2022-09-09T10:51:02;101330.68;;;13.76;68.45
51067;BME280;37112;45.892;-123.962;2022-09-09T10:53:31;101329.04;;;13.79;68.45
51067;BME280;37112;45.892;-123.962;2022-09-09T10:55:53;101327.82;;;13.83;68.36
51067;BME280;37112;45.892;-123.962;2022-09-09T10:58:13;101326.75;;;13.88;68.45
51067;BME280;37112;45.892;-123.962;2022-09-09T11:00:31;101328.27;;;13.91;68.20
51067;BME280;37112;45.892;-123.962;2022-09-09T11:02:54;101326.46;;;13.92;67.91
51067;BME280;37112;45.892;-123.962;2022-09-09T11:05:14;101326.42;;;13.90;67.69
51067;BME280;37112;45.892;-123.962;2022-09-09T11:07:39;101318.70;;;13.90;67.64
51067;BME280;37112;45.892;-123.962;2022-09-09T11:09:58;101315.52;;;13.90;67.48
51067;BME280;37112;45.892;-123.962;2022-09-09T11:12:17;101311.74;;;13.90;67.47
51067;BME280;37112;45.892;-123.962;2022-09-09T11:14:34;101309.40;;;13.91;67.43
51067;BME280;37112;45.892;-123.962;2022-09-09T11:16:53;101307.75;;;13.91;67.31
51067;BME280;37112;45.892;-123.962;2022-09-09T11:19:15;101302.54;;;13.95;67.13
51067;BME280;37112;45.892;-123.962;2022-09-09T11:21:32;101301.74;;;13.98;67.15
51067;BME280;37112;45.892;-123.962;2022-09-09T11:23:51;101304.55;;;14.01;66.82
51067;BME280;37112;45.892;-123.962;2022-09-09T11:26:07;101303.86;;;14.03;66.80
51067;BME280;37112;45.892;-123.962;2022-09-09T11:28:31;101305.95;;;14.04;66.73
51067;BME280;37112;45.892;-123.962;2022-09-09T11:31:00;101296.93;;;14.05;66.63
51067;BME280;37112;45.892;-123.962;2022-09-09T11:33:39;101296.76;;;14.07;66.45
51067;BME280;37112;45.892;-123.962;2022-09-09T11:36:16;101296.51;;;14.08;66.34
51067;BME280;37112;45.892;-123.962;2022-09-09T11:38:39;101297.30;;;14.07;66.08